createdAt,value
2017-10-15T00:00:00.367Z,10.13
2017-10-15T00:00:04.867Z,10.12
2017-10-15T00:00:08.969Z,10.12
2017-10-15T00:00:12.941Z,10.13
2017-10-15T00:00:17.187Z,10.11
2017-10-15T00:00:21.423Z,10.12
2017-10-15T00:00:25.791Z,10.12
2017-10-15T00:00:30.146Z,10.11
2017-10-15T00:00:34.374Z,10.12
2017-10-15T00:00:38.475Z,10.11
2017-10-15T00:00:42.838Z,10.11
2017-10-15T00:00:47.331Z,10.11
2017-10-15T00:00:51.299Z,10.1
2017-10-15T00:00:55.267Z,10.1
2017-10-15T00:00:59.626Z,10.11
2017-10-15T00:01:04.000Z,10.1
2017-10-15T00:01:08.094Z,10.09
2017-10-15T00:01:12.591Z,10.09
2017-10-15T00:01:16.686Z,10.09
2017-10-15T00:01:21.228Z,10.09
2017-10-15T00:01:25.459Z,10.09
2017-10-15T00:01:29.952Z,10.08
2017-10-15T00:01:34.463Z,10.08
2017-10-15T00:01:38.689Z,10.08
2017-10-15T00:01:43.176Z,10.08
2017-10-15T00:01:47.681Z,10.08
2017-10-15T00:01:51.776Z,10.08
2017-10-15T00:01:56.143Z,10.07
2017-10-15T00:02:00.236Z,10.08
2017-10-15T00:02:04.751Z,10.07
2017-10-15T00:02:08.987Z,10.07
2017-10-15T00:02:13.231Z,10.06
2017-10-15T00:02:17.202Z,10.06
2017-10-15T00:02:21.580Z,10.07
2017-10-15T00:02:25.680Z,10.05
2017-10-15T00:02:30.184Z,10.06
2017-10-15T00:02:34.279Z,10.06
2017-10-15T00:02:38.639Z,10.06
2017-10-15T00:02:42.743Z,10.05
2017-10-15T00:02:46.968Z,10.05
2017-10-15T00:02:51.202Z,10.05
2017-10-15T00:02:55.572Z,10.05
2017-10-15T00:02:59.799Z,10.05
2017-10-15T00:03:04.321Z,10.04
2017-10-15T00:03:08.550Z,10.05
2017-10-15T00:03:12.930Z,10.05
2017-10-15T00:03:17.432Z,10.05
2017-10-15T00:03:21.526Z,10.05
2017-10-15T00:03:25.910Z,10.05
2017-10-15T00:03:30.290Z,10.06
2017-10-15T00:03:34.522Z,10.04
2017-10-15T00:03:38.753Z,10.05
2017-10-15T00:03:43.275Z,10.05
2017-10-15T00:03:47.801Z,10.05
2017-10-15T00:03:52.036Z,10.05
2017-10-15T00:03:56.268Z,10.05
2017-10-15T00:04:00.241Z,10.05
2017-10-15T00:04:04.749Z,10.05
2017-10-15T00:04:09.257Z,10.06
2017-10-15T00:04:13.493Z,10.05
2017-10-15T00:04:17.732Z,10.05
2017-10-15T00:04:21.973Z,10.05
2017-10-15T00:04:26.072Z,10.05
2017-10-15T00:04:30.564Z,10.05
2017-10-15T00:04:34.673Z,10.05
2017-10-15T00:04:38.772Z,10.05
2017-10-15T00:04:43.272Z,10.05
2017-10-15T00:04:47.234Z,10.06
2017-10-15T00:04:51.201Z,10.05
2017-10-15T00:04:55.038Z,10.06
2017-10-15T00:04:59.277Z,10.06
2017-10-15T00:05:03.773Z,10.06
2017-10-15T00:05:08.281Z,10.06
2017-10-15T00:05:12.251Z,10.06
2017-10-15T00:05:16.356Z,10.06
2017-10-15T00:05:20.592Z,10.06
2017-10-15T00:05:24.958Z,10.07
2017-10-15T00:05:29.453Z,10.06
2017-10-15T00:05:34.083Z,10.07
2017-10-15T00:05:38.313Z,10.07
2017-10-15T00:05:42.434Z,10.07
2017-10-15T00:05:46.798Z,10.07
2017-10-15T00:05:51.031Z,10.07
2017-10-15T00:05:55.527Z,10.07
2017-10-15T00:05:59.636Z,10.08
2017-10-15T00:06:04.081Z,10.07
2017-10-15T00:06:08.572Z,10.07
2017-10-15T00:06:13.063Z,10.07
2017-10-15T00:06:17.294Z,10.08
2017-10-15T00:06:21.790Z,10.08
2017-10-15T00:06:26.297Z,10.08
2017-10-15T00:06:30.665Z,10.09
2017-10-15T00:06:34.766Z,10.08
2017-10-15T00:06:38.993Z,10.09
2017-10-15T00:06:43.354Z,10.08
2017-10-15T00:06:47.326Z,10.08
2017-10-15T00:06:51.566Z,10.09
2017-10-15T00:06:55.927Z,10.1
2017-10-15T00:07:00.025Z,10.09
2017-10-15T00:07:04.854Z,10.09
2017-10-15T00:07:09.080Z,10.1
2017-10-15T00:07:13.313Z,10.1
2017-10-15T00:07:17.547Z,10.1
2017-10-15T00:07:21.913Z,10.09
2017-10-15T00:07:26.272Z,10.09
2017-10-15T00:07:30.372Z,10.09
2017-10-15T00:07:34.640Z,10.1
2017-10-15T00:07:39.134Z,10.09
2017-10-15T00:07:43.497Z,10.11
2017-10-15T00:07:47.730Z,10.11
2017-10-15T00:07:51.957Z,10.11
2017-10-15T00:07:56.187Z,10.11
2017-10-15T00:08:00.554Z,10.11
2017-10-15T00:08:04.987Z,10.11
2017-10-15T00:08:09.220Z,10.11
2017-10-15T00:08:13.584Z,10.11
2017-10-15T00:08:17.816Z,10.12
2017-10-15T00:08:22.048Z,10.11
2017-10-15T00:08:26.148Z,10.12
2017-10-15T00:08:30.253Z,10.11
2017-10-15T00:08:34.746Z,10.12
2017-10-15T00:08:38.969Z,10.11
2017-10-15T00:08:42.943Z,10.11
2017-10-15T00:08:47.176Z,10.11
2017-10-15T00:08:51.407Z,10.12
2017-10-15T00:08:55.374Z,10.12
2017-10-15T00:08:59.615Z,10.12
2017-10-15T00:09:03.991Z,10.12
2017-10-15T00:09:07.964Z,10.12
2017-10-15T00:09:12.218Z,10.12
2017-10-15T00:09:16.573Z,10.12
2017-10-15T00:09:21.066Z,10.12
2017-10-15T00:09:25.299Z,10.12
2017-10-15T00:09:29.667Z,10.12
2017-10-15T00:09:33.898Z,10.13
2017-10-15T00:09:37.994Z,10.12
2017-10-15T00:09:42.246Z,10.12
2017-10-15T00:09:46.342Z,10.12
2017-10-15T00:09:50.693Z,10.13
2017-10-15T00:09:54.932Z,10.12
2017-10-15T00:09:59.285Z,10.12
2017-10-15T00:10:03.248Z,10.12
2017-10-15T00:10:07.622Z,10.12
2017-10-15T00:10:11.729Z,10.13
2017-10-15T00:10:16.090Z,10.13
2017-10-15T00:10:20.320Z,10.12
2017-10-15T00:10:24.452Z,10.12
2017-10-15T00:11:00.626Z,10.12
2017-10-15T00:11:04.722Z,10.12
2017-10-15T00:11:09.097Z,10.13
2017-10-15T00:11:13.346Z,10.13
2017-10-15T00:11:17.700Z,10.12
2017-10-15T00:11:22.066Z,10.13
2017-10-15T00:11:26.573Z,10.13
2017-10-15T00:11:30.675Z,10.14
2017-10-15T00:11:35.032Z,10.14
2017-10-15T00:11:39.398Z,10.14
2017-10-15T00:11:43.631Z,10.13
2017-10-15T00:11:47.598Z,10.12
2017-10-15T00:11:51.831Z,10.13
2017-10-15T00:11:56.068Z,10.13
2017-10-15T00:11:59.903Z,10.13
2017-10-15T00:12:04.334Z,10.13
2017-10-15T00:12:08.434Z,10.13
2017-10-15T00:12:12.544Z,10.13
2017-10-15T00:12:16.901Z,10.13
2017-10-15T00:12:21.394Z,10.12
2017-10-15T00:12:25.362Z,10.13
2017-10-15T00:12:29.855Z,10.14
2017-10-15T00:12:33.955Z,10.12
2017-10-15T00:12:38.063Z,10.12
2017-10-15T00:12:42.163Z,10.13
2017-10-15T00:12:46.275Z,10.13
2017-10-15T00:12:50.506Z,10.12
2017-10-15T00:12:54.603Z,10.13
2017-10-15T00:12:58.964Z,10.13
2017-10-15T00:13:03.481Z,10.13
2017-10-15T00:13:07.840Z,10.12
2017-10-15T00:13:11.941Z,10.13
2017-10-15T00:13:16.042Z,10.12
2017-10-15T00:13:20.402Z,10.12
2017-10-15T00:13:24.767Z,10.12
2017-10-15T00:13:28.741Z,10.13
2017-10-15T00:13:33.231Z,10.12
2017-10-15T00:13:37.721Z,10.12
2017-10-15T00:13:42.084Z,10.13
2017-10-15T00:13:46.355Z,10.12
2017-10-15T00:13:50.585Z,10.13
2017-10-15T00:13:54.564Z,10.13
2017-10-15T00:13:58.668Z,10.12
2017-10-15T00:14:02.848Z,10.13
2017-10-15T00:14:06.813Z,10.13
2017-10-15T00:14:10.913Z,10.13
2017-10-15T00:14:15.140Z,10.13
2017-10-15T00:14:19.640Z,10.13
2017-10-15T00:14:23.999Z,10.13
2017-10-15T00:14:28.110Z,10.13
2017-10-15T00:14:32.077Z,10.14
2017-10-15T00:14:36.452Z,10.14
2017-10-15T00:14:40.816Z,10.13
2017-10-15T00:14:45.044Z,10.13
2017-10-15T00:14:49.010Z,10.13
2017-10-15T00:14:53.390Z,10.14
2017-10-15T00:14:57.622Z,10.14
2017-10-15T00:15:01.721Z,10.14
2017-10-15T00:15:06.015Z,10.14
2017-10-15T00:15:10.261Z,10.14
2017-10-15T00:15:14.227Z,10.13
2017-10-15T00:15:18.586Z,10.14
2017-10-15T00:15:22.819Z,10.15
2017-10-15T00:15:27.176Z,10.13
2017-10-15T00:15:31.137Z,10.14
2017-10-15T00:15:35.512Z,10.14
2017-10-15T00:15:39.608Z,10.14
2017-10-15T00:15:44.109Z,10.14
2017-10-15T00:15:48.342Z,10.14
2017-10-15T00:15:52.444Z,10.13
2017-10-15T00:15:56.669Z,10.13
2017-10-15T00:16:01.174Z,10.13
2017-10-15T00:16:05.542Z,10.14
2017-10-15T00:16:09.777Z,10.13
2017-10-15T00:16:14.006Z,10.14
2017-10-15T00:16:18.371Z,10.13
2017-10-15T00:16:22.729Z,10.14
2017-10-15T00:16:26.965Z,10.13
2017-10-15T00:16:31.066Z,10.12
2017-10-15T00:16:35.177Z,10.14
2017-10-15T00:16:39.274Z,10.13
2017-10-15T00:16:43.369Z,10.12
2017-10-15T00:16:47.338Z,10.14
2017-10-15T00:16:51.701Z,10.13
2017-10-15T00:16:55.928Z,10.13
2017-10-15T00:17:00.431Z,10.13
2017-10-15T00:17:04.915Z,10.14
2017-10-15T00:17:09.145Z,10.13
2017-10-15T00:17:13.507Z,10.13
2017-10-15T00:17:18.023Z,10.12
2017-10-15T00:17:22.380Z,10.12
2017-10-15T00:17:26.876Z,10.13
2017-10-15T00:17:31.242Z,10.13
2017-10-15T00:17:35.475Z,10.13
2017-10-15T00:17:39.569Z,10.12
2017-10-15T00:17:43.671Z,10.13
2017-10-15T00:17:47.791Z,10.12
2017-10-15T00:17:52.171Z,10.12
2017-10-15T00:17:56.267Z,10.13
2017-10-15T00:18:00.502Z,10.12
2017-10-15T00:18:04.964Z,10.12
2017-10-15T00:18:09.197Z,10.12
2017-10-15T00:18:13.441Z,10.12
2017-10-15T00:18:17.671Z,10.11
2017-10-15T00:18:22.036Z,10.12
2017-10-15T00:18:26.534Z,10.12
2017-10-15T00:18:30.497Z,10.12
2017-10-15T00:18:34.856Z,10.12
2017-10-15T00:18:39.097Z,10.12
2017-10-15T00:18:43.458Z,10.12
2017-10-15T00:18:47.818Z,10.11
2017-10-15T00:18:52.058Z,10.12
2017-10-15T00:18:56.433Z,10.11
2017-10-15T00:19:00.531Z,10.11
2017-10-15T00:19:04.759Z,10.11
2017-10-15T00:19:09.120Z,10.12
2017-10-15T00:19:13.634Z,10.11
2017-10-15T00:19:18.011Z,10.12
2017-10-15T00:19:21.984Z,10.11
2017-10-15T00:19:26.623Z,10.11
2017-10-15T00:19:30.860Z,10.11
2017-10-15T00:19:35.478Z,10.11
2017-10-15T00:19:39.850Z,10.11
2017-10-15T00:19:44.083Z,10.11
2017-10-15T00:19:48.179Z,10.1
2017-10-15T00:19:52.800Z,10.11
2017-10-15T00:19:57.153Z,10.11
2017-10-15T00:20:01.647Z,10.11
2017-10-15T00:20:05.897Z,10.1
2017-10-15T00:20:10.276Z,10.11
2017-10-15T00:20:14.538Z,10.1
2017-10-15T00:20:18.768Z,10.1
2017-10-15T00:20:22.869Z,10.09
2017-10-15T00:20:27.236Z,10.1
2017-10-15T00:20:31.461Z,10.11
2017-10-15T00:20:35.689Z,10.1
2017-10-15T00:20:39.936Z,10.1
2017-10-15T00:20:43.906Z,10.09
2017-10-15T00:20:48.276Z,10.1
2017-10-15T00:20:52.512Z,10.09
2017-10-15T00:20:56.906Z,10.1
2017-10-15T00:21:01.265Z,10.09
2017-10-15T00:21:05.600Z,10.09
2017-10-15T00:21:09.705Z,10.09
2017-10-15T00:21:13.817Z,10.09
2017-10-15T00:21:18.042Z,10.09
2017-10-15T00:21:22.415Z,10.09
2017-10-15T00:21:26.380Z,10.08
2017-10-15T00:21:31.001Z,10.09
2017-10-15T00:21:35.364Z,10.08
2017-10-15T00:21:39.593Z,10.08
2017-10-15T00:21:43.561Z,10.07
2017-10-15T00:21:47.671Z,10.07
2017-10-15T00:21:52.053Z,10.07
2017-10-15T00:21:56.026Z,10.07
2017-10-15T00:22:00.248Z,10.06
2017-10-15T00:22:04.225Z,10.06
2017-10-15T00:22:08.509Z,10.07
2017-10-15T00:22:12.737Z,10.06
2017-10-15T00:22:17.106Z,10.05
2017-10-15T00:22:21.476Z,10.05
2017-10-15T00:22:25.706Z,10.05
2017-10-15T00:22:29.671Z,10.05
2017-10-15T00:22:34.034Z,10.05
2017-10-15T00:22:38.275Z,10.04
2017-10-15T00:22:42.770Z,10.04
2017-10-15T00:22:47.260Z,10.04
2017-10-15T00:22:51.398Z,10.04
2017-10-15T00:22:55.505Z,10.03
2017-10-15T00:22:59.740Z,10.03
2017-10-15T00:23:03.983Z,10.03
2017-10-15T00:23:07.947Z,10.03
2017-10-15T00:23:12.041Z,10.03
2017-10-15T00:23:16.154Z,10.02
2017-10-15T00:23:20.122Z,10.02
2017-10-15T00:23:24.343Z,10.02
2017-10-15T00:23:28.437Z,10.02
2017-10-15T00:23:32.536Z,10.02
2017-10-15T00:23:37.029Z,10.01
2017-10-15T00:23:41.127Z,10.02
2017-10-15T00:23:45.225Z,10.01
2017-10-15T00:23:49.328Z,10.01
2017-10-15T00:23:53.559Z,10.01
2017-10-15T00:23:57.789Z,10.01
2017-10-15T00:24:01.894Z,10.01
2017-10-15T00:24:06.384Z,10.01
2017-10-15T00:24:10.759Z,10
2017-10-15T00:24:15.133Z,10.01
2017-10-15T00:24:19.637Z,10.01
2017-10-15T00:24:24.160Z,10.01
2017-10-15T00:24:28.520Z,10
2017-10-15T00:24:33.012Z,10
2017-10-15T00:24:37.242Z,10
2017-10-15T00:24:41.600Z,10
2017-10-15T00:24:45.838Z,10
2017-10-15T00:24:49.935Z,9.99
2017-10-15T00:24:53.909Z,9.99
2017-10-15T00:24:58.003Z,9.99
2017-10-15T00:25:02.380Z,9.99
2017-10-15T00:25:06.617Z,9.99
2017-10-15T00:25:10.717Z,9.99
2017-10-15T00:25:15.092Z,9.99
2017-10-15T00:25:19.189Z,9.99
2017-10-15T00:25:23.287Z,9.99
2017-10-15T00:25:27.791Z,9.99
2017-10-15T00:25:32.021Z,9.99
2017-10-15T00:25:36.118Z,9.98
2017-10-15T00:25:40.215Z,9.98
2017-10-15T00:25:44.583Z,9.99
2017-10-15T00:25:48.558Z,9.98
2017-10-15T00:25:52.923Z,9.98
2017-10-15T00:25:57.019Z,9.98
2017-10-15T00:26:01.118Z,9.98
2017-10-15T00:26:05.439Z,9.99
2017-10-15T00:26:09.801Z,9.97
2017-10-15T00:26:14.033Z,9.98
2017-10-15T00:26:18.009Z,9.98
2017-10-15T00:26:21.843Z,9.98
2017-10-15T00:26:26.210Z,9.97
2017-10-15T00:26:30.441Z,9.97
2017-10-15T00:26:34.945Z,9.97
2017-10-15T00:26:39.311Z,9.98
2017-10-15T00:26:43.543Z,9.97
2017-10-15T00:26:47.646Z,9.98
2017-10-15T00:26:51.612Z,9.97
2017-10-15T00:26:55.980Z,9.97
2017-10-15T00:27:00.344Z,9.96
2017-10-15T00:27:04.576Z,9.98
2017-10-15T00:27:08.816Z,9.97
2017-10-15T00:27:12.928Z,9.97
2017-10-15T00:27:17.025Z,9.97
2017-10-15T00:27:21.260Z,9.96
2017-10-15T00:27:25.356Z,9.97
2017-10-15T00:27:29.456Z,9.97
2017-10-15T00:27:33.552Z,9.97
2017-10-15T00:27:37.919Z,9.97
2017-10-15T00:27:41.888Z,9.96
2017-10-15T00:27:46.113Z,9.96
2017-10-15T00:27:50.210Z,9.96
2017-10-15T00:27:54.444Z,9.96
2017-10-15T00:27:58.537Z,9.96
2017-10-15T00:28:02.643Z,9.96
2017-10-15T00:28:07.163Z,9.96
2017-10-15T00:28:11.519Z,9.95
2017-10-15T00:28:15.873Z,9.96
2017-10-15T00:28:19.972Z,9.96
2017-10-15T00:28:24.202Z,9.96
2017-10-15T00:28:28.308Z,9.95
2017-10-15T00:28:32.550Z,9.96
2017-10-15T00:28:37.080Z,9.95
2017-10-15T00:28:41.446Z,9.96
2017-10-15T00:28:45.554Z,9.96
2017-10-15T00:28:49.542Z,9.96
2017-10-15T00:28:53.491Z,9.95
2017-10-15T00:28:57.720Z,9.94
2017-10-15T00:29:01.818Z,9.95
2017-10-15T00:29:20.824Z,9.95
2017-10-15T00:29:25.313Z,9.95
2017-10-15T00:29:29.541Z,9.95
2017-10-15T00:29:33.913Z,9.95
2017-10-15T00:29:38.012Z,9.95
2017-10-15T00:29:42.373Z,9.95
2017-10-15T00:29:46.730Z,9.94
2017-10-15T00:29:51.091Z,9.95
2017-10-15T00:29:55.320Z,9.94
2017-10-15T00:29:59.682Z,9.95
2017-10-15T00:30:03.653Z,9.94
2017-10-15T00:30:08.017Z,9.95
2017-10-15T00:30:12.378Z,9.95
2017-10-15T00:30:16.757Z,9.95
2017-10-15T00:30:21.128Z,9.95
2017-10-15T00:30:25.364Z,9.95
2017-10-15T00:30:29.739Z,9.95
2017-10-15T00:30:33.973Z,9.94
2017-10-15T00:30:38.345Z,9.95
2017-10-15T00:30:42.437Z,9.95
2017-10-15T00:30:46.538Z,9.95
2017-10-15T00:30:50.901Z,9.94
2017-10-15T00:30:55.135Z,9.95
2017-10-15T00:30:59.499Z,9.95
2017-10-15T00:31:04.177Z,9.95
2017-10-15T00:31:08.401Z,9.95
2017-10-15T00:31:12.503Z,9.95
2017-10-15T00:31:16.880Z,9.95
2017-10-15T00:31:20.979Z,9.95
2017-10-15T00:31:25.075Z,9.95
2017-10-15T00:31:29.309Z,9.95
2017-10-15T00:31:33.939Z,9.95
2017-10-15T00:31:38.290Z,9.95
2017-10-15T00:31:42.382Z,9.95
2017-10-15T00:31:46.748Z,9.95
2017-10-15T00:31:51.247Z,9.95
2017-10-15T00:31:55.606Z,9.95
2017-10-15T00:31:59.967Z,9.95
2017-10-15T00:32:04.368Z,9.95
2017-10-15T00:32:08.619Z,9.94
2017-10-15T00:32:12.849Z,9.95
2017-10-15T00:32:17.081Z,9.95
2017-10-15T00:32:21.326Z,9.95
2017-10-15T00:32:25.686Z,9.95
2017-10-15T00:32:29.800Z,9.95
2017-10-15T00:32:33.893Z,9.95
2017-10-15T00:32:37.856Z,9.95
2017-10-15T00:32:42.214Z,9.95
2017-10-15T00:32:46.724Z,9.95
2017-10-15T00:32:50.951Z,9.94
2017-10-15T00:32:55.046Z,9.94
2017-10-15T00:32:59.282Z,9.94
2017-10-15T00:33:03.538Z,9.94
2017-10-15T00:33:07.907Z,9.95
2017-10-15T00:33:12.401Z,9.94
2017-10-15T00:33:17.036Z,9.94
2017-10-15T00:33:21.261Z,9.95
2017-10-15T00:33:25.763Z,9.94
2017-10-15T00:33:29.862Z,9.94
2017-10-15T00:33:33.960Z,9.94
2017-10-15T00:33:38.590Z,9.94
2017-10-15T00:33:42.565Z,9.95
2017-10-15T00:33:46.531Z,9.94
2017-10-15T00:33:50.755Z,9.94
2017-10-15T00:33:55.121Z,9.95
2017-10-15T00:33:59.218Z,9.95
2017-10-15T00:34:03.747Z,9.95
2017-10-15T00:34:07.976Z,9.94
2017-10-15T00:34:12.225Z,9.93
2017-10-15T00:34:16.321Z,9.94
2017-10-15T00:34:20.552Z,9.95
2017-10-15T00:34:24.788Z,9.95
2017-10-15T00:34:28.887Z,9.94
2017-10-15T00:34:33.120Z,9.95
2017-10-15T00:34:37.350Z,9.94
2017-10-15T00:34:41.724Z,9.94
2017-10-15T00:34:46.216Z,9.95
2017-10-15T00:34:50.449Z,9.94
2017-10-15T00:34:54.432Z,9.94
2017-10-15T00:34:58.508Z,9.95
2017-10-15T00:35:02.604Z,9.94
2017-10-15T00:35:06.701Z,9.94
2017-10-15T00:35:10.672Z,9.94
2017-10-15T00:35:14.786Z,9.94
2017-10-15T00:35:19.276Z,9.95
2017-10-15T00:35:23.638Z,9.95
2017-10-15T00:35:28.005Z,9.95
2017-10-15T00:35:32.102Z,9.95
2017-10-15T00:35:36.471Z,9.95
2017-10-15T00:35:40.706Z,9.95
2017-10-15T00:35:44.805Z,9.96
2017-10-15T00:35:48.912Z,9.95
2017-10-15T00:35:53.032Z,9.95
2017-10-15T00:35:57.131Z,9.95
2017-10-15T00:36:01.242Z,9.96
2017-10-15T00:36:05.341Z,9.95
2017-10-15T00:36:09.565Z,9.96
2017-10-15T00:36:13.918Z,9.96
2017-10-15T00:36:18.149Z,9.96
2017-10-15T00:36:22.385Z,9.96
2017-10-15T00:36:26.624Z,9.95
2017-10-15T00:36:30.721Z,9.96
2017-10-15T00:36:34.952Z,9.95
2017-10-15T00:36:39.046Z,9.97
2017-10-15T00:36:43.291Z,9.95
2017-10-15T00:36:47.786Z,9.97
2017-10-15T00:36:51.894Z,9.96
2017-10-15T00:36:56.140Z,9.96
2017-10-15T00:37:00.383Z,9.96
2017-10-15T00:37:04.652Z,9.96
2017-10-15T00:37:08.883Z,9.96
2017-10-15T00:37:12.984Z,9.97
2017-10-15T00:37:17.346Z,9.96
2017-10-15T00:37:21.977Z,9.96
2017-10-15T00:37:26.216Z,9.96
2017-10-15T00:37:30.575Z,9.96
2017-10-15T00:37:34.933Z,9.96
2017-10-15T00:37:39.163Z,9.96
2017-10-15T00:37:43.141Z,9.96
2017-10-15T00:37:47.514Z,9.97
2017-10-15T00:37:51.607Z,9.97
2017-10-15T00:37:55.583Z,9.96
2017-10-15T00:37:59.685Z,9.96
2017-10-15T00:38:04.044Z,9.96
2017-10-15T00:38:08.408Z,9.96
2017-10-15T00:38:12.376Z,9.97
2017-10-15T00:38:17.001Z,9.97
2017-10-15T00:38:20.970Z,9.97
2017-10-15T00:38:25.207Z,9.96
2017-10-15T00:38:29.304Z,9.97
2017-10-15T00:38:33.531Z,9.97
2017-10-15T00:38:37.894Z,9.97
2017-10-15T00:38:42.125Z,9.97
2017-10-15T00:38:46.352Z,9.97
2017-10-15T00:38:50.712Z,9.97
2017-10-15T00:38:54.955Z,9.97
2017-10-15T00:38:59.184Z,9.97
2017-10-15T00:39:03.250Z,9.97
2017-10-15T00:39:07.490Z,9.97
2017-10-15T00:39:11.731Z,9.97
2017-10-15T00:39:16.220Z,9.96
2017-10-15T00:39:20.323Z,9.97
2017-10-15T00:39:24.552Z,9.97
2017-10-15T00:39:28.645Z,9.97
2017-10-15T00:39:32.871Z,9.96
2017-10-15T00:39:36.968Z,9.96
2017-10-15T00:39:41.198Z,9.96
2017-10-15T00:39:45.686Z,9.96
2017-10-15T00:39:49.922Z,9.96
2017-10-15T00:39:54.564Z,9.96
2017-10-15T00:39:59.047Z,9.96
2017-10-15T00:40:03.415Z,9.96
2017-10-15T00:40:07.799Z,9.96
2017-10-15T00:40:12.034Z,9.96
2017-10-15T00:40:16.142Z,9.96
2017-10-15T00:40:20.406Z,9.95
2017-10-15T00:40:24.639Z,9.95
2017-10-15T00:40:28.734Z,9.96
2017-10-15T00:40:32.835Z,9.96
2017-10-15T00:40:36.930Z,9.96
2017-10-15T00:40:40.899Z,9.95
2017-10-15T00:40:45.002Z,9.96
2017-10-15T00:40:49.639Z,9.95
2017-10-15T00:40:53.998Z,9.96
2017-10-15T00:40:58.224Z,9.95
2017-10-15T00:41:02.344Z,9.95
2017-10-15T00:41:06.709Z,9.94
2017-10-15T00:41:10.689Z,9.95
2017-10-15T00:41:14.919Z,9.94
2017-10-15T00:41:19.149Z,9.94
2017-10-15T00:41:23.246Z,9.95
2017-10-15T00:41:27.612Z,9.94
2017-10-15T00:41:31.710Z,9.94
2017-10-15T00:41:35.806Z,9.94
2017-10-15T00:41:40.047Z,9.95
2017-10-15T00:41:44.277Z,9.94
2017-10-15T00:41:48.929Z,9.94
2017-10-15T00:41:53.295Z,9.94
2017-10-15T00:41:57.524Z,9.93
2017-10-15T00:42:02.011Z,9.94
2017-10-15T00:42:06.374Z,9.93
2017-10-15T00:42:10.472Z,9.94
2017-10-15T00:42:14.575Z,9.94
2017-10-15T00:42:18.939Z,9.94
2017-10-15T00:42:23.036Z,9.94
2017-10-15T00:42:27.403Z,9.94
2017-10-15T00:42:31.760Z,9.95
2017-10-15T00:42:35.854Z,9.94
2017-10-15T00:42:39.828Z,9.94
2017-10-15T00:42:44.204Z,9.94
2017-10-15T00:42:48.308Z,9.95
2017-10-15T00:42:52.413Z,9.95
2017-10-15T00:42:56.649Z,9.94
2017-10-15T00:43:01.009Z,9.94
2017-10-15T00:43:05.240Z,9.95
2017-10-15T00:43:09.471Z,9.95
2017-10-15T00:43:13.965Z,9.95
2017-10-15T00:43:18.061Z,9.95
2017-10-15T00:43:22.689Z,9.94
2017-10-15T00:43:27.193Z,9.95
2017-10-15T00:43:31.548Z,9.94
2017-10-15T00:43:35.911Z,9.95
2017-10-15T00:43:40.419Z,9.95
2017-10-15T00:43:44.782Z,9.95
2017-10-15T00:43:49.156Z,9.95
2017-10-15T00:43:53.253Z,9.95
2017-10-15T00:43:57.624Z,9.95
2017-10-15T00:44:02.110Z,9.94
2017-10-15T00:44:06.344Z,9.95
2017-10-15T00:44:10.835Z,9.95
2017-10-15T00:44:15.193Z,9.94
2017-10-15T00:44:19.689Z,9.93
2017-10-15T00:44:23.958Z,9.94
2017-10-15T00:44:28.055Z,9.94
2017-10-15T00:44:32.539Z,9.94
2017-10-15T00:44:36.780Z,9.94
2017-10-15T00:44:41.013Z,9.93
2017-10-15T00:44:45.377Z,9.93
2017-10-15T00:44:49.743Z,9.93
2017-10-15T00:44:53.977Z,9.93
2017-10-15T00:44:58.343Z,9.93
2017-10-15T00:45:02.880Z,9.93
2017-10-15T00:45:07.125Z,9.93
2017-10-15T00:45:11.092Z,9.93
2017-10-15T00:45:15.586Z,9.93
2017-10-15T00:45:19.827Z,9.92
2017-10-15T00:45:24.442Z,9.92
2017-10-15T00:45:28.272Z,9.92
2017-10-15T00:45:32.643Z,9.91
2017-10-15T00:45:37.161Z,9.92
2017-10-15T00:45:41.534Z,9.91
2017-10-15T00:45:45.495Z,9.91
2017-10-15T00:45:49.595Z,9.92
2017-10-15T00:45:53.953Z,9.91
2017-10-15T00:45:58.180Z,9.91
2017-10-15T00:46:02.567Z,9.91
2017-10-15T00:46:06.691Z,9.9
2017-10-15T00:46:10.927Z,9.9
2017-10-15T00:46:15.168Z,9.9
2017-10-15T00:46:19.536Z,9.9
2017-10-15T00:46:24.037Z,9.91
2017-10-15T00:46:28.009Z,9.9
2017-10-15T00:46:32.117Z,9.9
2017-10-15T00:46:36.477Z,9.9
2017-10-15T00:46:40.965Z,9.89
2017-10-15T00:46:45.064Z,9.89
2017-10-15T00:46:49.421Z,9.89
2017-10-15T00:46:53.523Z,9.89
2017-10-15T00:46:58.012Z,9.88
2017-10-15T00:47:02.109Z,9.89
2017-10-15T00:47:06.379Z,9.88
2017-10-15T00:47:10.478Z,9.88
2017-10-15T00:47:15.006Z,9.88
2017-10-15T00:47:19.248Z,9.88
2017-10-15T00:47:23.609Z,9.87
2017-10-15T00:47:28.261Z,9.87
2017-10-15T00:47:32.490Z,9.88
2017-10-15T00:47:37.108Z,9.87
2017-10-15T00:47:41.078Z,9.87
2017-10-15T00:47:45.451Z,9.86
2017-10-15T00:47:49.416Z,9.87
2017-10-15T00:47:53.383Z,9.87
2017-10-15T00:47:57.757Z,9.87
2017-10-15T00:48:01.853Z,9.86
2017-10-15T00:48:06.217Z,9.86
2017-10-15T00:48:10.185Z,9.87
2017-10-15T00:48:14.569Z,9.85
2017-10-15T00:48:18.666Z,9.85
2017-10-15T00:48:23.307Z,9.85
2017-10-15T00:48:27.537Z,9.85
2017-10-15T00:48:31.767Z,9.84
2017-10-15T00:48:36.127Z,9.84
2017-10-15T00:48:40.229Z,9.84
2017-10-15T00:48:44.327Z,9.84
2017-10-15T00:48:48.687Z,9.84
2017-10-15T00:48:52.785Z,9.83
2017-10-15T00:48:57.008Z,9.84
2017-10-15T00:49:01.370Z,9.83
2017-10-15T00:49:05.864Z,9.83
2017-10-15T00:49:10.110Z,9.82
2017-10-15T00:49:14.477Z,9.82
2017-10-15T00:49:18.710Z,9.82
2017-10-15T00:49:23.077Z,9.83
2017-10-15T00:49:27.311Z,9.82
2017-10-15T00:49:31.408Z,9.82
2017-10-15T00:49:35.505Z,9.83
2017-10-15T00:49:39.634Z,9.82
2017-10-15T00:49:44.002Z,9.81
2017-10-15T00:49:48.228Z,9.81
2017-10-15T00:49:52.586Z,9.81
2017-10-15T00:49:56.942Z,9.81
2017-10-15T00:50:01.314Z,9.81
2017-10-15T00:50:05.418Z,9.8
2017-10-15T00:50:09.800Z,9.8
2017-10-15T00:50:13.904Z,9.81
2017-10-15T00:50:18.272Z,9.8
2017-10-15T00:50:22.644Z,9.79
2017-10-15T00:50:26.876Z,9.79
2017-10-15T00:50:30.855Z,9.78
2017-10-15T00:50:35.090Z,9.79
2017-10-15T00:50:39.055Z,9.78
2017-10-15T00:50:43.555Z,9.78
2017-10-15T00:50:47.919Z,9.78
2017-10-15T00:50:52.287Z,9.77
2017-10-15T00:50:56.516Z,9.77
2017-10-15T00:51:00.756Z,9.77
2017-10-15T00:51:05.260Z,9.76
2017-10-15T00:51:09.227Z,9.76
2017-10-15T00:51:13.598Z,9.76
2017-10-15T00:51:17.975Z,9.75
2017-10-15T00:51:22.089Z,9.75
2017-10-15T00:51:26.326Z,9.75
2017-10-15T00:51:30.820Z,9.74
2017-10-15T00:51:35.053Z,9.74
2017-10-15T00:51:39.149Z,9.74
2017-10-15T00:51:43.247Z,9.74
2017-10-15T00:51:47.478Z,9.73
2017-10-15T00:51:51.583Z,9.73
2017-10-15T00:51:55.809Z,9.73
2017-10-15T00:52:00.173Z,9.72
2017-10-15T00:52:05.029Z,9.72
2017-10-15T00:52:09.396Z,9.71
2017-10-15T00:52:13.497Z,9.71
2017-10-15T00:52:17.601Z,9.71
2017-10-15T00:52:22.089Z,9.7
2017-10-15T00:52:26.190Z,9.7
2017-10-15T00:52:30.289Z,9.69
2017-10-15T00:52:34.656Z,9.69
2017-10-15T00:52:39.022Z,9.69
2017-10-15T00:52:43.244Z,9.68
2017-10-15T00:52:47.488Z,9.67
2017-10-15T00:52:51.723Z,9.68
2017-10-15T00:52:56.217Z,9.67
2017-10-15T00:53:00.452Z,9.66
2017-10-15T00:53:04.865Z,9.66
2017-10-15T00:53:09.217Z,9.66
2017-10-15T00:53:13.577Z,9.66
2017-10-15T00:53:17.945Z,9.65
2017-10-15T00:53:22.316Z,9.65
2017-10-15T00:53:26.538Z,9.65
2017-10-15T00:53:30.777Z,9.64
2017-10-15T00:53:35.009Z,9.64
2017-10-15T00:53:39.112Z,9.63
2017-10-15T00:53:43.344Z,9.63
2017-10-15T00:53:47.440Z,9.63
2017-10-15T00:53:51.793Z,9.63
2017-10-15T00:53:55.759Z,9.62
2017-10-15T00:53:59.860Z,9.62
2017-10-15T00:54:04.018Z,9.61
2017-10-15T00:54:07.983Z,9.6
2017-10-15T00:54:12.478Z,9.61
2017-10-15T00:54:16.839Z,9.61
2017-10-15T00:54:21.327Z,9.6
2017-10-15T00:54:25.690Z,9.6
2017-10-15T00:54:29.666Z,9.59
2017-10-15T00:54:33.769Z,9.59
2017-10-15T00:54:38.001Z,9.59
2017-10-15T00:54:42.364Z,9.58
2017-10-15T00:54:46.336Z,9.58
2017-10-15T00:54:50.563Z,9.57
2017-10-15T00:54:54.930Z,9.57
2017-10-15T00:54:59.030Z,9.58
2017-10-15T00:55:03.548Z,9.56
2017-10-15T00:55:08.047Z,9.57
2017-10-15T00:55:12.275Z,9.57
2017-10-15T00:55:16.505Z,9.55
2017-10-15T00:55:20.468Z,9.56
2017-10-15T00:55:24.961Z,9.56
2017-10-15T00:55:29.448Z,9.55
2017-10-15T00:55:33.804Z,9.55
2017-10-15T00:55:38.168Z,9.55
2017-10-15T00:55:42.670Z,9.55
2017-10-15T00:55:46.765Z,9.54
2017-10-15T00:55:51.120Z,9.54
2017-10-15T00:55:55.085Z,9.53
2017-10-15T00:55:59.581Z,9.53
2017-10-15T00:56:03.826Z,9.52
2017-10-15T00:56:08.327Z,9.52
2017-10-15T00:56:12.435Z,9.53
2017-10-15T00:56:16.809Z,9.52
2017-10-15T00:56:21.173Z,9.52
2017-10-15T00:56:25.428Z,9.51
2017-10-15T00:56:30.049Z,9.51
2017-10-15T00:56:34.279Z,9.51
2017-10-15T00:56:38.377Z,9.5
2017-10-15T00:56:42.477Z,9.5